Frojdi II — ZAD4L — position and weather

sailwx.info

Track history (hours):
 
Tides and Currents Weather Stations Pressure Air Temp Water Temp Dewpoint Dewpoint Depression Visibility Wind Speed Wind Dir Waves Ship Positions

Frojdi II

Last reported at 2018-Aug-21 07:14 UTC. Time now 2018-Sep-19 03:26 UTC.
Position N 44°39' E 013°31'.
Warning: this ship's position is 28 days out of date.

Length 75 m; draft 3.6 m.

Type: Cargo ship. MMSI: 201100115.

Date/timePositionNaut miles runAvg speedWind from/ knotsBaromVisibWave heightAir tempDewpointWater temp
2018-Aug-21 07:14N 44°39' E 013°31'2 6.4
2018-Aug-21 07:00N 44°41' E 013°29'3 6.5
2018-Aug-21 06:30N 44°43' E 013°27'3 6.4
2018-Aug-21 06:03N 44°46' E 013°25'0 6.4
2018-Aug-21 06:00N 44°46' E 013°25'5 6.3
2018-Aug-21 05:09N 44°51' E 013°20'1 6.3
2018-Aug-21 04:58N 44°52' E 013°19'23 6.1
2018-Aug-21 01:14N 45°11' E 013°03'1 6.2
2018-Aug-21 01:04N 45°12' E 013°03'0 6.2
2018-Aug-21 01:01N 45°13' E 013°03'4 6.4
2018-Aug-21 00:20N 45°17' E 013°02'2 6.5
2018-Aug-20 23:59N 45°19' E 013°01'3 6.6
2018-Aug-20 23:29N 45°22' E 013°02'3 6.6
2018-Aug-20 23:02N 45°25' E 013°04'1 6.8
2018-Aug-20 22:56N 45°25' E 013°05'3 7.0
2018-Aug-20 22:29N 45°28' E 013°08'3 7.0
2018-Aug-20 22:03N 45°30' E 013°11'0 6.9
2018-Aug-20 22:00N 45°30' E 013°11'4 6.9
2018-Aug-20 21:28N 45°32' E 013°15'3 6.8
2018-Aug-20 21:03N 45°34' E 013°18'0 6.6
2018-Aug-20 21:00N 45°34' E 013°19'18 5.9
2018-Aug-20 18:01N 45°33' E 013°44'0 1.5
2018-Aug-20 17:50N 45°33' E 013°44'0 0.0
2018-Aug-20 17:30N 45°33' E 013°44'0 0.0
2018-Aug-20 16:44N 45°33' E 013°44'0 0.0
2018-Aug-20 15:12N 45°33' E 013°44'0 0.0
2018-Aug-20 15:00N 45°33' E 013°44'0 0.0
2018-Aug-20 14:20N 45°33' E 013°44'0 0.0
2018-Aug-20 13:58N 45°33' E 013°44'0 0.0
2018-Aug-20 12:59N 45°33' E 013°44'0 0.0
2018-Aug-20 12:30N 45°33' E 013°44'0 0.0
2018-Aug-20 12:02N 45°33' E 013°44'0 0.1
2018-Aug-20 11:58N 45°33' E 013°44'0 0.0
2018-Aug-20 11:02N 45°33' E 013°44'0 0.1
2018-Aug-20 10:59N 45°33' E 013°44'0 0.0
2018-Aug-20 10:30N 45°33' E 013°44'0 0.0
2018-Aug-20 10:04N 45°33' E 013°44'0 0.0
2018-Aug-20 10:00N 45°33' E 013°44'0 0.0
2018-Aug-20 09:31N 45°33' E 013°44'0 0.0
2018-Aug-20 09:03N 45°33' E 013°44'0 0.0
2018-Aug-20 09:00N 45°33' E 013°44'0 0.0
2018-Aug-20 08:30N 45°33' E 013°44'0 0.0
2018-Aug-20 08:03N 45°33' E 013°44'0 0.0
2018-Aug-20 08:01N 45°33' E 013°44'0 0.0
2018-Aug-20 07:30N 45°33' E 013°44'0 0.0
2018-Aug-20 07:03N 45°33' E 013°44'0 0.0
2018-Aug-20 07:00N 45°33' E 013°44'0 0.0
2018-Aug-20 06:29N 45°33' E 013°44'0 0.0
2018-Aug-20 06:03N 45°33' E 013°44'0 0.1
2018-Aug-20 06:00N 45°33' E 013°44'0 0.0
2018-Aug-20 05:29N 45°33' E 013°44'0 0.0
2018-Aug-20 05:03N 45°33' E 013°44'0 0.0
2018-Aug-20 05:00N 45°33' E 013°44'0 0.0
2018-Aug-20 04:47N 45°33' E 013°44'0 0.0
2018-Aug-20 04:30N 45°33' E 013°44'0 0.0
2018-Aug-20 04:00N 45°33' E 013°44'0 0.0
2018-Aug-20 03:30N 45°33' E 013°44'0 0.0
2018-Aug-20 03:00N 45°33' E 013°44'1 1.1
2018-Aug-20 02:30N 45°33' E 013°44'2 3.6
2018-Aug-20 02:00N 45°34' E 013°41'0 0.1
2018-Aug-20 01:30N 45°34' E 013°41'0 0.0
2018-Aug-20 01:00N 45°34' E 013°41'0 0.1
2018-Aug-20 00:30N 45°34' E 013°41'0 0.1
2018-Aug-20 00:00N 45°34' E 013°41'0 0.1
2018-Aug-19 23:31N 45°34' E 013°41'2 3.0
2018-Aug-19 23:00N 45°34' E 013°39'3 6.9
2018-Aug-19 22:30N 45°35' E 013°34'3 6.4
2018-Aug-19 22:00N 45°33' E 013°30'3 6.9
2018-Aug-19 21:30N 45°32' E 013°26'3 6.6
2018-Aug-19 21:00N 45°30' E 013°22'3 6.7
2018-Aug-19 20:30N 45°28' E 013°19'7 6.6
2018-Aug-19 19:30N 45°22' E 013°13'11 6.4
2018-Aug-19 17:50N 45°12' E 013°16'6 6.4
2018-Aug-19 16:56N 45°06' E 013°18'4 6.4
2018-Aug-19 16:17N 45°02' E 013°21'2 6.5
2018-Aug-19 16:00N 45°01' E 013°21'3 6.4
2018-Aug-19 15:30N 44°58' E 013°23'3 6.4
2018-Aug-19 15:00N 44°55' E 013°25'6 6.2
2018-Aug-19 14:00N 44°50' E 013°30'3 6.4
2018-Aug-19 13:30N 44°47' E 013°33'  
Track history (hours):
 
Tides and Currents Weather Stations Pressure Air Temp Water Temp Dewpoint Dewpoint Depression Visibility Wind Speed Wind Dir Waves Ship Positions

Frojdi II

Last reported at 2018-Aug-21 07:14 UTC. Time now 2018-Sep-19 03:26 UTC.
Position N 44°39' E 013°31'.
Warning: this ship's position is 28 days out of date.

Length 75 m; draft 3.6 m.

Type: Cargo ship. MMSI: 201100115.

Date/timePositionNaut miles runAvg speedWind from/ knotsBaromVisibWave heightAir tempDewpointWater temp
2018-Aug-21 07:14N 44°39' E 013°31'2 6.4
2018-Aug-21 07:00N 44°41' E 013°29'3 6.5
2018-Aug-21 06:30N 44°43' E 013°27'3 6.4
2018-Aug-21 06:03N 44°46' E 013°25'0 6.4
2018-Aug-21 06:00N 44°46' E 013°25'5 6.3
2018-Aug-21 05:09N 44°51' E 013°20'1 6.3
2018-Aug-21 04:58N 44°52' E 013°19'23 6.1
2018-Aug-21 01:14N 45°11' E 013°03'1 6.2
2018-Aug-21 01:04N 45°12' E 013°03'0 6.2
2018-Aug-21 01:01N 45°13' E 013°03'4 6.4
2018-Aug-21 00:20N 45°17' E 013°02'2 6.5
2018-Aug-20 23:59N 45°19' E 013°01'3 6.6
2018-Aug-20 23:29N 45°22' E 013°02'3 6.6
2018-Aug-20 23:02N 45°25' E 013°04'1 6.8
2018-Aug-20 22:56N 45°25' E 013°05'3 7.0
2018-Aug-20 22:29N 45°28' E 013°08'3 7.0
2018-Aug-20 22:03N 45°30' E 013°11'0 6.9
2018-Aug-20 22:00N 45°30' E 013°11'4 6.9
2018-Aug-20 21:28N 45°32' E 013°15'3 6.8
2018-Aug-20 21:03N 45°34' E 013°18'0 6.6
2018-Aug-20 21:00N 45°34' E 013°19'18 5.9
2018-Aug-20 18:01N 45°33' E 013°44'0 1.5
2018-Aug-20 17:50N 45°33' E 013°44'0 0.0
2018-Aug-20 17:30N 45°33' E 013°44'0 0.0
2018-Aug-20 16:44N 45°33' E 013°44'0 0.0
2018-Aug-20 15:12N 45°33' E 013°44'0 0.0
2018-Aug-20 15:00N 45°33' E 013°44'0 0.0
2018-Aug-20 14:20N 45°33' E 013°44'0 0.0
2018-Aug-20 13:58N 45°33' E 013°44'0 0.0
2018-Aug-20 12:59N 45°33' E 013°44'0 0.0
2018-Aug-20 12:30N 45°33' E 013°44'0 0.0
2018-Aug-20 12:02N 45°33' E 013°44'0 0.1
2018-Aug-20 11:58N 45°33' E 013°44'0 0.0
2018-Aug-20 11:02N 45°33' E 013°44'0 0.1
2018-Aug-20 10:59N 45°33' E 013°44'0 0.0
2018-Aug-20 10:30N 45°33' E 013°44'0 0.0
2018-Aug-20 10:04N 45°33' E 013°44'0 0.0
2018-Aug-20 10:00N 45°33' E 013°44'0 0.0
2018-Aug-20 09:31N 45°33' E 013°44'0 0.0
2018-Aug-20 09:03N 45°33' E 013°44'0 0.0
2018-Aug-20 09:00N 45°33' E 013°44'0 0.0
2018-Aug-20 08:30N 45°33' E 013°44'0 0.0
2018-Aug-20 08:03N 45°33' E 013°44'0 0.0
2018-Aug-20 08:01N 45°33' E 013°44'0 0.0
2018-Aug-20 07:30N 45°33' E 013°44'0 0.0
2018-Aug-20 07:03N 45°33' E 013°44'0 0.0
2018-Aug-20 07:00N 45°33' E 013°44'0 0.0
2018-Aug-20 06:29N 45°33' E 013°44'0 0.0
2018-Aug-20 06:03N 45°33' E 013°44'0 0.1
2018-Aug-20 06:00N 45°33' E 013°44'0 0.0
2018-Aug-20 05:29N 45°33' E 013°44'0 0.0
2018-Aug-20 05:03N 45°33' E 013°44'0 0.0
2018-Aug-20 05:00N 45°33' E 013°44'0 0.0
2018-Aug-20 04:47N 45°33' E 013°44'0 0.0
2018-Aug-20 04:30N 45°33' E 013°44'0 0.0
2018-Aug-20 04:00N 45°33' E 013°44'0 0.0
2018-Aug-20 03:30N 45°33' E 013°44'0 0.0
2018-Aug-20 03:00N 45°33' E 013°44'1 1.1
2018-Aug-20 02:30N 45°33' E 013°44'2 3.6
2018-Aug-20 02:00N 45°34' E 013°41'0 0.1
2018-Aug-20 01:30N 45°34' E 013°41'0 0.0
2018-Aug-20 01:00N 45°34' E 013°41'0 0.1
2018-Aug-20 00:30N 45°34' E 013°41'0 0.1
2018-Aug-20 00:00N 45°34' E 013°41'0 0.1
2018-Aug-19 23:31N 45°34' E 013°41'2 3.0
2018-Aug-19 23:00N 45°34' E 013°39'3 6.9
2018-Aug-19 22:30N 45°35' E 013°34'3 6.4
2018-Aug-19 22:00N 45°33' E 013°30'3 6.9
2018-Aug-19 21:30N 45°32' E 013°26'3 6.6
2018-Aug-19 21:00N 45°30' E 013°22'3 6.7
2018-Aug-19 20:30N 45°28' E 013°19'7 6.6
2018-Aug-19 19:30N 45°22' E 013°13'11 6.4
2018-Aug-19 17:50N 45°12' E 013°16'6 6.4
2018-Aug-19 16:56N 45°06' E 013°18'4 6.4
2018-Aug-19 16:17N 45°02' E 013°21'2 6.5
2018-Aug-19 16:00N 45°01' E 013°21'3 6.4
2018-Aug-19 15:30N 44°58' E 013°23'3 6.4
2018-Aug-19 15:00N 44°55' E 013°25'6 6.2
2018-Aug-19 14:00N 44°50' E 013°30'3 6.4
2018-Aug-19 13:30N 44°47' E 013°33'  

Dump ship's entire track history